Latest Weather Observations for Montague Island

IDN60901

Issued at 9:41 pm EDT Saturday 25 January 2020 (issued every 10 minutes, with the page automatically refreshed every 10 minutes)

About weather observations | Map of Canberra area stations | Latest observations for Canberra area | Other Formats
Station Details ID: 069017 Name: MONTAGUE ISLAND LIGHTHOUSE Lat: -36.25 Lon: 150.23 Height: 52.0 m
Data from the previous 72 hours. | See also: Recent months at Montague Island
Date/Time
EDT
Temp
°C
App
Temp
°C
Dew
Point
°C
Rel
Hum
%
Delta-T
°C
Wind Press
QNH
hPa
Press
MSL
hPa
Rain since
9am
mm
Dir  Spd
km/h
Gust
km/h
Spd
kts
Gust
kts
25/09:30pm 23.5 23.6 22.5 94 0.7 NE 26 32 14 17 1012.5 1012.4 0.0
25/09:00pm 23.5 23.2 22.5 94 0.7 NE 28 35 15 19 1012.2 1012.1 0.0
25/08:30pm 23.4 22.9 22.2 93 0.8 NE 28 33 15 18 1012.0 1011.9 0.0
25/08:00pm 23.3 23.5 22.1 93 0.8 NNE 24 30 13 16 1011.8 1011.7 0.0
25/07:30pm 23.4 23.1 21.8 91 1.1 NNE 26 33 14 18 1011.6 1011.5 0.0
25/07:00pm 23.4 22.9 21.5 89 1.3 NNE 26 32 14 17 1011.4 1011.3 0.0
25/06:30pm 23.5 21.4 21.0 86 1.6 NNE 33 43 18 23 1011.1 1011.0 0.0
25/06:00pm 23.6 21.0 20.7 84 1.9 NNE 35 46 19 25 1010.8 1010.7 0.0
25/05:30pm 23.8 21.2 20.7 83 2.0 NNE 35 46 19 25 1010.9 1010.8 0.0
25/05:00pm 24.0 21.4 20.7 82 2.2 NNE 35 43 19 23 1011.1 1011.0 0.0
25/04:30pm 24.3 21.7 20.6 80 2.4 NNE 35 43 19 23 1011.2 1011.1 0.0
25/04:00pm 24.4 21.8 20.7 80 2.4 NNE 35 44 19 24 1011.4 1011.3 0.0
25/03:30pm 24.7 23.6 21.0 80 2.4 NNE 28 35 15 19 1011.5 1011.4 0.0
25/03:00pm 24.7 24.7 21.0 80 2.4 NNE 22 30 12 16 1012.0 1011.9 0.0
25/02:30pm 24.2 25.1 20.9 82 2.2 NE 17 22 9 12 1012.6 1012.5 0.0
25/02:00pm 23.0 23.2 20.1 84 1.9 NE 19 24 10 13 1012.8 1012.7 0.0
25/01:30pm 22.5 23.2 19.7 84 1.8 NE 15 20 8 11 1013.4 1013.2 0.0
25/01:00pm 22.3 23.4 18.9 81 2.2 NE 11 17 6 9 1013.9 1013.7 0.0
25/12:30pm 22.2 25.0 18.8 81 2.1 NE 2 9 1 5 1014.4 1014.2 0.0
25/12:00pm 21.6 24.1 18.2 81 2.1 NE 2 9 1 5 1014.5 1014.3 0.0
25/11:30am 21.6 24.4 18.8 84 1.8 NNW 2 7 1 4 1014.9 1014.7 0.0
25/11:00am 20.4 23.3 18.2 87 1.4 CALM 0 0 0 0 1015.1 1014.9 0.0
25/10:30am 19.7 22.4 17.7 88 1.2 CALM 0 2 0 1 1015.3 1015.1 0.0
25/10:00am 19.6 20.9 17.2 86 1.5 S 6 9 3 5 1015.4 1015.2 0.0
25/09:30am 19.3 19.9 16.7 85 1.6 SW 9 13 5 7 1015.4 1015.2 0.0
25/09:00am 19.2 18.6 16.6 85 1.6 SW 15 19 8 10 1015.2 1015.0 7.0
25/08:30am 18.8 18.2 16.6 87 1.3 SSW 15 20 8 11 1015.2 1015.0 7.0
25/08:00am 18.6 17.0 16.6 88 1.2 SW 20 24 11 13 1014.8 1014.6 7.0
25/07:30am 18.6 17.1 16.8 89 1.1 SSW 20 22 11 12 1014.7 1014.5 7.0
25/07:00am 18.4 16.8 16.6 89 1.1 SSW 20 24 11 13 1014.4 1014.2 7.0
25/06:30am 18.3 16.4 16.8 91 0.9 SW 22 28 12 15 1014.1 1013.9 7.0
25/06:00am 18.0 15.4 16.9 93 0.7 SSW 26 32 14 17 1014.3 1014.1 7.0
25/05:30am 17.9 15.4 17.1 95 0.5 SSW 26 32 14 17 1013.9 1013.7 7.0
25/05:00am 17.5 14.6 17.0 97 0.3 SSW 28 33 15 18 1013.9 1013.7 7.0
25/04:30am 17.1 14.1 16.8 98 0.2 SW 28 33 15 18 1013.6 1013.4 7.0
25/04:00am 17.3 15.2 17.1 99 0.1 SW 24 30 13 16 1014.0 1013.8 7.0
25/03:30am 17.4 14.9 17.2 99 0.1 SW 26 32 14 17 1013.7 1013.5 7.0
25/03:00am 17.3 15.2 17.1 99 0.1 SW 24 30 13 16 1014.4 1014.2 7.0
25/02:30am 17.3 15.2 17.1 99 0.1 SSW 24 30 13 16 1014.5 1014.3 7.0
25/02:00am 17.5 14.7 17.2 98 0.2 SSW 28 33 15 18 1014.4 1014.2 6.0
25/01:30am 17.9 15.9 17.4 97 0.3 SSW 24 28 13 15 1014.8 1014.6 3.8
25/01:00am 18.3 17.0 17.3 94 0.6 S 20 26 11 14 1015.0 1014.8 3.2
25/12:30am 18.9 18.1 17.2 90 1.0 S 17 22 9 12 1015.3 1015.1 2.6
25/12:00am 19.2 18.9 17.3 89 1.2 S 15 17 8 9 1015.5 1015.3 2.4
 
Date/Time
EDT
Temp
°C
App
Temp
°C
Dew
Point
°C
Rel
Hum
%
Delta-T
°C
Wind Press
QNH
hPa
Press
MSL
hPa
Rain since
9am
mm
Dir  Spd
km/h
Gust
km/h
Spd
kts
Gust
kts
24/11:30pm 19.3 18.2 17.8 91 0.9 SSW 20 24 11 13 1015.6 1015.4 2.4
24/11:00pm 19.0 17.5 17.8 93 0.7 SSW 22 26 12 14 1015.6 1015.4 2.4
24/10:30pm 19.0 17.9 17.8 93 0.7 SSW 20 24 11 13 1015.6 1015.4 2.2
24/10:00pm 19.4 18.4 17.9 91 0.9 SSW 20 26 11 14 1015.3 1015.1 1.2
24/09:30pm 19.3 17.7 17.4 89 1.2 SSW 22 26 12 14 1014.9 1014.7 0.4
24/09:00pm 20.2 19.1 17.4 84 1.7 SSE 19 26 10 14 1014.4 1014.2 0.0
24/08:30pm 20.9 19.0 16.7 77 2.6 SSE 22 26 12 14 1013.8 1013.6 0.0
24/08:00pm 20.8 17.8 16.8 78 2.4 SSE 28 32 15 17 1013.3 1013.1 0.0
24/07:30pm 20.8 17.7 16.6 77 2.5 SSE 28 33 15 18 1012.5 1012.4 0.0
24/07:00pm 20.7 17.6 16.5 77 2.5 SE 28 32 15 17 1011.9 1011.8 0.0
24/06:30pm 20.9 17.9 16.7 77 2.6 SSE 28 32 15 17 1011.6 1011.5 0.0
24/06:00pm 21.3 19.5 16.9 76 2.7 SE 22 28 12 15 1011.4 1011.3 0.0
24/05:30pm 21.7 20.5 17.1 75 2.8 SE 19 22 10 12 1011.3 1011.2 0.0
24/05:00pm 21.3 20.6 16.5 74 2.9 ESE 15 20 8 11 1011.0 1010.9 0.0
24/04:30pm 21.6 20.5 16.3 72 3.2 E 17 22 9 12 1010.8 1010.7 0.0
24/04:00pm 21.5 19.9 16.0 71 3.3 E 19 24 10 13 1010.7 1010.6 0.0
24/03:30pm 22.6 20.9 16.2 67 3.9 E 20 24 11 13 1010.3 1010.2 0.0
24/03:00pm 22.1 20.7 15.5 66 4.0 E 17 20 9 11 1010.7 1010.6 0.0
24/02:30pm 22.4 21.0 15.5 65 4.1 E 17 20 9 11 1010.5 1010.4 0.0
24/02:00pm 22.4 22.3 16.0 67 3.9 ESE 11 15 6 8 1010.7 1010.6 0.0
24/01:30pm 21.6 20.8 15.2 67 3.8 ESE 13 19 7 10 1010.5 1010.4 0.0
24/01:00pm 21.4 20.0 14.6 65 4.0 ESE 15 22 8 12 1010.6 1010.5 0.0
24/12:30pm 20.9 18.6 14.1 65 4.0 SE 19 22 10 12 1011.0 1010.9 0.0
24/12:00pm 21.4 19.7 14.8 66 3.9 SSE 17 20 9 11 1011.1 1011.0 0.0
24/11:30am 20.7 18.3 13.9 65 3.9 SSE 19 24 10 13 1011.3 1011.2 0.0
24/11:00am 20.8 18.3 14.2 66 3.8 SSE 20 24 11 13 1011.2 1011.1 0.0
24/10:30am 20.6 18.1 13.6 64 4.0 SSE 19 20 10 11 1011.2 1011.1 0.0
24/10:00am 20.5 18.1 13.7 65 3.9 SSE 19 22 10 12 1011.0 1010.9 0.0
24/09:30am 19.7 17.2 13.4 67 3.6 SSE 19 22 10 12 1010.9 1010.8 0.0
24/09:00am 19.4 16.8 13.3 68 3.5 SSE 19 24 10 13 1010.7 1010.6 1.4
24/08:30am 19.1 15.4 12.8 67 3.5 SE 24 28 13 15 1010.4 1010.3 1.4
24/08:00am 18.8 15.9 13.9 73 2.8 SSE 22 28 12 15 1010.0 1009.9 1.4
24/07:30am 18.7 15.8 14.0 74 2.7 SSE 22 28 12 15 1009.6 1009.5 1.4
24/07:00am 18.6 15.1 14.5 77 2.4 S 26 32 14 17 1008.8 1008.6 1.4
24/06:30am 18.4 14.5 14.3 77 2.4 S 28 33 15 18 1008.1 1007.9 1.4
24/06:00am 18.4 13.6 14.7 79 2.2 S 33 39 18 21 1007.7 1007.5 1.4
24/05:30am 18.4 13.3 14.7 79 2.1 S 35 44 19 24 1006.9 1006.7 1.4
24/05:00am 18.6 13.7 15.3 81 1.9 S 35 43 19 23 1006.6 1006.4 1.4
24/04:30am 18.8 13.8 16.2 85 1.6 S 37 43 20 23 1006.6 1006.4 1.4
24/04:00am 19.0 15.0 16.8 87 1.3 S 33 43 18 23 1006.1 1005.9 1.4
24/03:30am 19.2 14.4 16.6 85 1.6 S 37 44 20 24 1005.9 1005.7 1.4
24/03:00am 19.4 15.1 16.8 85 1.6 S 35 46 19 25 1005.2 1005.0 1.4
24/02:30am 19.9 15.2 18.6 92 0.8 SSW 41 50 22 27 1004.7 1004.5 1.4
24/02:00am 20.8 18.2 19.8 94 0.6 SSW 33 41 18 22 1004.8 1004.6 1.4
24/01:30am 21.1 20.3 20.1 94 0.6 SSW 24 30 13 16 1004.6 1004.4 1.4
24/01:00am 21.6 20.3 19.9 90 1.1 S 26 30 14 16 1004.6 1004.4 1.4
24/12:30am 21.6 19.7 20.2 92 0.9 S 30 35 16 19 1004.3 1004.1 1.4
24/12:00am 22.3 19.6 18.5 79 2.4 SW 30 37 16 20 1004.1 1003.9 1.4
 
Date/Time
EDT
Temp
°C
App
Temp
°C
Dew
Point
°C
Rel
Hum
%
Delta-T
°C
Wind Press
QNH
hPa
Press
MSL
hPa
Rain since
9am
mm
Dir  Spd
km/h
Gust
km/h
Spd
kts
Gust
kts
23/11:30pm 21.9 20.8 18.7 82 2.0 SSW 22 28 12 15 1003.6 1003.4 1.4
23/11:00pm 20.9 19.2 19.7 93 0.8 SSW 28 33 15 18 1003.4 1003.2 1.4
23/10:30pm 21.4 21.6 20.2 93 0.8 S 19 32 10 17 1003.2 1003.0 1.4
23/10:00pm 21.7 20.4 19.1 85 1.7 SSW 24 32 13 17 1002.5 1002.3 1.2
23/09:30pm 24.0 20.3 18.4 71 3.5 WNW 35 43 19 23 1001.4 1001.2 1.2
23/09:00pm 23.8 21.3 18.9 74 3.1 WNW 30 41 16 22 1000.8 1000.6 0.6
23/08:30pm 25.1 20.9 18.8 68 4.0 NW 39 52 21 28 999.9 999.7 0.6
23/08:17pm 24.4 22.9 19.5 74 3.2 NW 26 46 14 25 999.6 999.4 0.4
23/08:00pm 23.3 25.4 21.7 91 1.1 W 13 30 7 16 1000.4 1000.2 0.2
23/07:30pm 21.5 22.2 20.5 94 0.6 S 17 24 9 13 999.5 999.3 0.0
23/07:00pm 21.6 21.8 20.6 94 0.7 S 20 30 11 16 999.0 998.8 0.0
23/06:30pm 21.5 21.2 20.3 93 0.8 SSE 22 28 12 15 998.2 998.0 0.0
23/06:00pm 21.9 21.4 20.0 89 1.2 S 22 30 12 16 998.2 998.0 0.0
23/05:30pm 22.0 19.5 19.7 87 1.5 SSW 32 39 17 21 997.7 997.5 0.0
23/05:00pm 23.2 19.6 18.5 75 3.0 SSW 35 50 19 27 997.1 996.9 0.0
23/04:56pm 24.0 20.0 17.7 68 3.9 SW 35 63 19 34 997.0 996.8 0.0
23/04:55pm 24.5 20.1 17.5 65 4.4 SW 37 63 20 34 996.8 996.6 0.0
23/04:45pm 30.0 22.2 15.3 41 9.0 WNW 50 74 27 40 996.3 996.1 0.0
23/04:38pm 32.9 20.9 14.0 32 11.5 WNW 70 96 38 52 995.4 995.2 0.0
23/04:35pm 33.1 19.8 13.7 31 11.8 WNW 76 96 41 52 995.1 994.9 0.0
23/04:30pm 33.4 21.0 14.0 31 11.9 WNW 72 96 39 52 995.1 994.9 0.0
23/04:28pm 32.9 20.9 13.5 30 11.7 WNW 69 95 37 51 995.1 994.9 0.0
23/04:07pm 32.3 22.8 13.5 32 11.4 WNW 56 76 30 41 995.5 995.3 0.0
23/04:00pm 33.0 22.6 13.6 31 11.8 WNW 61 76 33 41 995.3 995.1 0.0
23/03:40pm 33.4 24.4 14.0 31 11.9 WNW 54 78 29 42 994.8 994.6 0.0
23/03:30pm 32.2 25.5 13.4 32 11.3 NW 41 72 22 39 994.7 994.5 0.0
23/03:11pm 32.8 25.7 13.4 30 11.7 NW 43 61 23 33 994.9 994.7 0.0
23/03:00pm 33.3 25.1 12.9 29 12.3 NW 48 65 26 35 994.7 994.5 0.0
23/02:32pm 32.7 26.7 13.4 31 11.7 NW 37 63 20 34 994.8 994.6 0.0
23/02:30pm 33.0 27.1 13.6 31 11.8 NW 37 48 20 26 994.9 994.7 0.0
23/02:00pm 33.0 24.7 12.6 29 12.3 NW 48 67 26 36 994.3 994.1 0.0
23/01:33pm 33.4 25.3 11.9 27 12.7 NW 46 67 25 36 994.2 994.0 0.0
23/01:30pm 33.3 24.7 11.8 27 12.7 NW 48 67 26 36 994.5 994.3 0.0
23/01:29pm 33.6 25.1 12.0 27 12.8 NW 48 67 26 36 994.5 994.3 0.0
23/01:21pm 34.2 22.9 10.7 24 13.7 NW 61 82 33 44 994.2 994.0 0.0
23/01:15pm 34.9 25.3 10.7 23 14.2 NW 52 82 28 44 993.8 993.6 0.0
23/01:00pm 34.0 26.4 10.6 24 13.7 NW 41 61 22 33 994.4 994.2 0.0
23/12:41pm 32.7 24.9 11.8 28 12.3 NW 44 63 24 34 994.7 994.5 0.0
23/12:30pm 32.7 25.5 11.8 28 12.3 NW 41 57 22 31 994.8 994.6 0.0
23/12:25pm 33.8 27.7 11.6 26 13.1 NNW 35 54 19 29 994.9 994.7 0.0
23/12:22pm 31.8 26.5 13.1 32 11.2 NNW 33 46 18 25 995.0 994.8 0.0
23/12:00pm 26.8 23.4 18.1 59 5.6 NNE 33 44 18 24 995.6 995.4 0.0
23/11:30am 24.7 21.2 19.5 73 3.3 NNE 37 44 20 24 995.6 995.4 0.0
23/11:00am 24.4 21.1 20.1 77 2.8 NE 37 46 20 25 995.5 995.3 0.0
23/10:30am 24.0 20.3 19.9 78 2.6 NNE 39 48 21 26 995.9 995.7 0.0
23/10:00am 24.1 19.6 19.8 77 2.8 NNE 43 50 23 27 996.2 996.0 0.0
23/09:30am 23.9 19.4 19.8 78 2.6 NNE 43 52 23 28 996.5 996.3 0.0
23/09:00am 23.8 19.1 19.5 77 2.8 NNE 43 52 23 28 997.0 996.8 0.0
23/08:30am 23.9 18.5 20.0 79 2.5 NNE 48 57 26 31 997.1 996.9 0.0
23/08:00am 23.3 19.4 20.4 84 1.9 NNE 41 50 22 27 997.6 997.4 0.0
23/07:30am 22.7 18.2 20.2 86 1.6 N 44 52 24 28 997.7 997.5 0.0
23/07:00am 22.9 16.4 20.1 84 1.8 N 54 61 29 33 997.7 997.5 0.0
23/06:30am 23.2 17.3 19.8 81 2.2 N 50 59 27 32 997.8 997.6 0.0
23/06:00am 22.8 19.1 20.0 84 1.8 N 39 48 21 26 998.2 998.0 0.0
23/05:30am 22.4 19.5 20.1 87 1.5 N 35 46 19 25 998.2 998.0 0.0
23/05:00am 22.4 20.0 20.3 88 1.4 N 33 41 18 22 998.9 998.7 0.0
23/04:30am 22.4 20.7 20.5 89 1.2 N 30 37 16 20 999.4 999.2 0.0
23/04:00am 22.3 21.4 20.6 90 1.1 NNE 26 33 14 18 999.8 999.6 0.0
23/03:30am 22.5 19.5 20.6 89 1.2 N 37 43 20 23 1000.2 1000.0 0.0
23/03:00am 22.7 20.7 20.8 89 1.2 N 32 43 17 23 1001.0 1000.8 0.0
23/02:30am 22.6 20.6 21.1 91 1.0 N 33 43 18 23 1001.3 1001.1 0.0
23/02:00am 22.5 20.7 21.1 92 0.9 N 32 43 17 23 1001.4 1001.2 0.0
23/01:30am 22.6 19.6 21.4 93 0.8 N 39 50 21 27 1001.8 1001.6 0.0
23/01:00am 22.9 20.5 21.9 94 0.7 N 37 50 20 27 1002.3 1002.1 0.0
23/12:30am 23.1 20.4 22.6 97 0.3 N 41 50 22 27 1002.6 1002.4 0.0
23/12:00am 23.2 20.1 22.7 97 0.3 N 43 56 23 30 1002.9 1002.7 0.0
 
Date/Time
EDT
Temp
°C
App
Temp
°C
Dew
Point
°C
Rel
Hum
%
Delta-T
°C
Wind Press
QNH
hPa
Press
MSL
hPa
Rain since
9am
mm
Dir  Spd
km/h
Gust
km/h
Spd
kts
Gust
kts
22/11:30pm 23.3 20.3 23.1 99 0.1 N 44 56 24 30 1003.1 1002.9 0.0
22/11:00pm 23.3 21.2 23.1 99 0.1 N 39 54 21 29 1003.3 1003.1 0.0
22/10:30pm 23.5 22.6 23.2 98 0.2 N 33 48 18 26 1003.9 1003.7 0.0
22/10:00pm 23.6 21.3 23.3 98 0.2 N 41 54 22 29 1003.9 1003.7 0.0

Latest Capital City Observations: Canberra | Sydney | Melbourne | Brisbane | Adelaide | Perth | Hobart | Darwin

Other formats

Comma delimited format used in spreadsheet applications
http://www.bom.gov.au/fwo/IDN60903/IDN60903.94939.axf

JavaScript Object Notation format (JSON) in row-major order
http://www.bom.gov.au/fwo/IDN60903/IDN60903.94939.json

Data quality

Most of these data are generated automatically and are frequently updated. Quality checks on data are not normally performed. It is possible for incorrect values to appear. Refer to information at About Latest Weather Observations and please check the disclaimer before using these data.